Time;durP1;ratioP1;P1;durP2;ratioP2;P2;SDS_P1;SDS_P2;PMS_P1;PMS_P2;Temp;Humidity;BMP_temperature;BMP_pressure;BME280_temperature;BME280_humidity;BME280_pressure;Samples;Min_cycle;Max_cycle;Signal;HPM_P1;HPM_P2
2021/08/27 00:01:48;;;;;;;4.43;0.82;;;14.90;99.90;;;;;;4998365;28;20030;-71
2021/08/27 00:04:14;;;;;;;2.90;1.08;;;14.90;99.90;;;;;;5011779;28;20077;-70
2021/08/27 00:06:40;;;;;;;2.92;0.90;;;14.90;99.90;;;;;;5014947;28;20121;-70
2021/08/27 00:09:05;;;;;;;4.78;0.77;;;15.00;99.90;;;;;;5004620;28;20034;-73
2021/08/27 00:11:31;;;;;;;3.85;0.93;;;15.00;99.90;;;;;;5001805;28;20029;-71
2021/08/27 00:13:57;;;;;;;3.70;0.90;;;15.00;99.90;;;;;;5016411;28;20046;-71
2021/08/27 00:16:26;;;;;;;5.88;1.13;;;15.00;99.90;;;;;;5015696;28;20065;-70
2021/08/27 00:18:51;;;;;;;3.13;0.77;;;14.90;99.90;;;;;;5014779;28;20026;-70
2021/08/27 00:21:17;;;;;;;3.33;0.93;;;15.00;99.90;;;;;;5011481;28;20019;-72
2021/08/27 00:23:43;;;;;;;3.65;0.75;;;15.00;99.90;;;;;;4995455;28;20043;-71
2021/08/27 00:26:08;;;;;;;2.17;0.50;;;14.90;99.90;;;;;;5002809;28;20021;-70
2021/08/27 00:28:34;;;;;;;2.20;1.10;;;15.00;99.90;;;;;;5003325;28;20405;-71
2021/08/27 00:31:00;;;;;;;2.90;0.80;;;14.90;99.90;;;;;;4994559;28;20511;-71
2021/08/27 00:33:26;;;;;;;5.40;1.55;;;15.00;99.90;;;;;;4994278;28;20113;-71
2021/08/27 00:35:52;;;;;;;4.85;1.25;;;15.00;99.90;;;;;;4994174;28;20387;-72
2021/08/27 00:38:36;;;;;;;3.28;0.60;;;15.00;99.90;;;;;;5007807;28;20097;-70
2021/08/27 00:41:02;;;;;;;5.15;0.77;;;15.00;99.90;;;;;;5004800;28;20026;-71
2021/08/27 00:43:28;;;;;;;3.30;0.80;;;14.90;99.90;;;;;;4994183;28;20502;-71
2021/08/27 00:46:12;;;;;;;2.90;0.82;;;14.90;99.90;;;;;;4993014;28;20030;-71
2021/08/27 00:48:38;;;;;;;3.90;0.85;;;14.80;99.90;;;;;;4994491;28;20034;-71
2021/08/27 00:51:04;;;;;;;2.85;0.65;;;14.80;99.90;;;;;;4999310;28;20026;-69
2021/08/27 00:53:31;;;;;;;7.78;0.93;;;14.80;99.90;;;;;;5005924;28;20034;-69
2021/08/27 00:55:57;;;;;;;4.05;1.30;;;14.70;99.90;;;;;;5010991;28;20037;-71
2021/08/27 00:58:23;;;;;;;2.42;0.70;;;14.70;99.90;;;;;;4993707;28;20105;-71
2021/08/27 01:00:49;;;;;;;2.40;0.65;;;14.70;99.90;;;;;;5004321;28;20025;-71
2021/08/27 01:03:19;;;;;;;8.30;1.13;;;14.70;99.90;;;;;;5004439;28;20502;-71
2021/08/27 01:06:34;;;;;;;4.88;0.75;;;14.60;99.90;;;;;;5000516;28;20058;-71
2021/08/27 01:09:07;;;;;;;6.32;0.95;;;14.60;99.90;;;;;;5002785;28;20046;-71
2021/08/27 01:11:39;;;;;;;2.85;1.48;;;14.50;99.90;;;;;;5000235;28;20125;-71
2021/08/27 01:14:07;;;;;;;9.73;1.40;;;14.50;99.90;;;;;;5005721;28;20065;-71
2021/08/27 01:16:52;;;;;;;3.13;1.63;;;14.40;99.90;;;;;;5008774;28;20498;-71
2021/08/27 01:19:49;;;;;;;7.53;0.90;;;14.40;99.90;;;;;;5007762;28;20069;-71
2021/08/27 01:22:52;;;;;;;6.38;0.52;;;14.30;99.90;;;;;;5012722;28;20124;-71
2021/08/27 01:25:21;;;;;;;8.63;1.02;;;14.30;99.90;;;;;;5000596;28;20037;-71
2021/08/27 01:27:49;;;;;;;12.27;1.15;;;14.30;99.90;;;;;;5012751;28;20420;-70
2021/08/27 01:30:21;;;;;;;;;;;14.30;99.90;;;;;;5011667;28;20382;-71
2021/08/27 01:33:01;;;;;;;9.40;1.23;;;14.40;99.90;;;;;;4999782;28;20028;-71
2021/08/27 01:35:29;;;;;;;2.55;0.82;;;14.30;99.90;;;;;;5003693;28;20057;-71
2021/08/27 01:37:57;;;;;;;3.97;0.68;;;14.30;99.90;;;;;;5012982;28;20025;-71
2021/08/27 01:40:25;;;;;;;5.68;1.73;;;14.30;99.90;;;;;;4997008;28;20026;-71
2021/08/27 01:42:51;;;;;;;;;;;14.20;99.90;;;;;;4993742;28;20021;-71
2021/08/27 01:45:18;;;;;;;11.82;1.83;;;14.20;99.90;;;;;;4993639;28;19956;-71
2021/08/27 01:47:45;;;;;;;8.18;1.00;;;14.20;99.90;;;;;;4997749;28;20105;-71
2021/08/27 01:50:12;;;;;;;8.10;1.13;;;14.20;99.90;;;;;;5012059;28;20030;-71
2021/08/27 01:52:39;;;;;;;1.88;0.80;;;14.10;99.90;;;;;;4996496;28;20533;-71
2021/08/27 01:55:08;;;;;;;6.78;1.80;;;14.10;99.90;;;;;;5003185;28;20093;-71
2021/08/27 01:57:35;;;;;;;6.15;0.93;;;14.10;99.90;;;;;;5003786;28;20054;-71
2021/08/27 02:00:03;;;;;;;9.10;1.95;;;14.00;99.90;;;;;;4997347;28;20050;-70
2021/08/27 02:02:29;;;;;;;4.72;0.77;;;14.10;99.90;;;;;;5001036;28;20121;-71
2021/08/27 02:04:59;;;;;;;5.68;0.95;;;14.00;99.90;;;;;;4996977;28;20563;-71
2021/08/27 02:07:25;;;;;;;4.75;1.00;;;14.00;99.90;;;;;;5000325;28;20109;-71
2021/08/27 02:09:54;;;;;;;8.88;1.05;;;14.00;99.90;;;;;;5005525;28;20097;-71
2021/08/27 02:12:20;;;;;;;4.93;1.00;;;14.00;99.90;;;;;;5006649;28;20506;-71
2021/08/27 02:14:49;;;;;;;4.90;0.73;;;14.10;99.90;;;;;;4996858;28;20530;-70
2021/08/27 02:17:14;;;;;;;8.63;1.00;;;14.10;99.90;;;;;;5007296;28;20018;-71
2021/08/27 02:19:40;;;;;;;10.10;2.20;;;14.20;99.90;;;;;;5014884;28;20030;-71
2021/08/27 02:22:11;;;;;;;3.20;1.08;;;14.20;99.90;;;;;;4998982;28;20022;-71
2021/08/27 02:24:48;;;;;;;8.60;1.02;;;14.20;99.90;;;;;;4996729;28;20119;-71
2021/08/27 02:27:14;;;;;;;2.35;0.80;;;14.20;99.90;;;;;;4996962;28;20018;-70
2021/08/27 02:29:43;;;;;;;2.72;0.93;;;14.30;99.90;;;;;;4997534;28;20026;-70
2021/08/27 02:32:11;;;;;;;3.03;0.70;;;14.30;99.90;;;;;;4998180;28;20031;-71
2021/08/27 02:34:42;;;;;;;6.22;0.85;;;14.40;99.90;;;;;;4996232;28;20101;-71
2021/08/27 02:37:09;;;;;;;1.50;0.70;;;14.30;99.90;;;;;;5000751;28;20026;-71
2021/08/27 02:39:35;;;;;;;6.00;1.10;;;14.40;99.90;;;;;;4996620;28;20485;-70
2021/08/27 02:42:01;;;;;;;2.53;0.70;;;14.30;99.90;;;;;;5007230;28;20014;-70
2021/08/27 02:44:27;;;;;;;4.57;1.33;;;14.40;99.90;;;;;;5009515;28;20037;-71
2021/08/27 02:46:53;;;;;;;1.40;0.88;;;14.50;99.90;;;;;;5012665;28;20383;-71
2021/08/27 02:49:19;;;;;;;2.22;0.75;;;14.50;99.90;;;;;;4996484;28;20446;-70
2021/08/27 02:52:02;;;;;;;8.27;1.08;;;14.40;99.90;;;;;;4995893;28;20058;-70
2021/08/27 02:54:31;;;;;;;4.90;1.02;;;14.50;99.90;;;;;;5014101;28;20153;-71
2021/08/27 02:57:03;;;;;;;7.13;1.60;;;14.50;99.90;;;;;;4996916;28;20113;-71
2021/08/27 02:59:29;;;;;;;8.43;0.82;;;14.50;99.90;;;;;;5007573;28;20022;-71
2021/08/27 03:01:56;;;;;;;1.33;1.00;;;14.50;99.90;;;;;;5005289;28;20026;-71
2021/08/27 03:04:46;;;;;;;3.80;0.82;;;14.50;99.90;;;;;;5004645;28;20038;-71
2021/08/27 03:07:15;;;;;;;3.45;1.10;;;14.50;99.90;;;;;;5012600;28;20046;-71
2021/08/27 03:09:50;;;;;;;6.18;1.38;;;14.60;99.90;;;;;;4998379;28;20030;-71
2021/08/27 03:12:19;;;;;;;3.55;0.90;;;14.60;99.90;;;;;;5010583;28;20064;-71
2021/08/27 03:14:55;;;;;;;4.13;0.93;;;14.60;99.90;;;;;;4997649;28;20026;-71
2021/08/27 03:17:26;;;;;;;2.80;1.40;;;14.60;99.90;;;;;;5005073;28;20490;-71
2021/08/27 03:20:01;;;;;;;7.80;0.60;;;14.60;99.90;;;;;;5016601;28;20475;-71
2021/08/27 03:22:32;;;;;;;3.05;1.10;;;14.60;99.90;;;;;;4995866;28;20063;-71
2021/08/27 03:25:07;;;;;;;3.58;0.80;;;14.60;99.90;;;;;;4996120;28;20030;-71
2021/08/27 03:27:45;;;;;;;3.78;0.80;;;14.60;99.90;;;;;;4997413;28;20038;-71
2021/08/27 03:30:14;;;;;;;;;;;14.60;99.90;;;;;;5014805;28;20028;-70
2021/08/27 03:32:53;;;;;;;6.60;0.70;;;14.60;99.90;;;;;;5000179;28;19920;-71
2021/08/27 03:35:20;;;;;;;6.03;0.80;;;14.60;99.90;;;;;;5000219;28;20105;-71
2021/08/27 03:37:48;;;;;;;2.38;0.75;;;14.70;99.90;;;;;;5002509;28;20025;-71
2021/08/27 03:40:15;;;;;;;8.82;2.05;;;14.70;99.90;;;;;;4995192;28;20109;-71
2021/08/27 03:42:41;;;;;;;4.53;0.77;;;14.70;99.90;;;;;;4995307;28;20030;-71
2021/08/27 03:45:09;;;;;;;3.53;0.70;;;14.70;99.90;;;;;;4993826;28;20026;-71
2021/08/27 03:47:36;;;;;;;7.25;1.42;;;14.70;99.90;;;;;;4998564;28;20022;-71
2021/08/27 03:50:03;;;;;;;5.50;0.85;;;14.80;99.90;;;;;;5013971;28;20030;-71
2021/08/27 03:52:29;;;;;;;2.15;1.23;;;14.80;99.90;;;;;;4998673;28;20027;-71
2021/08/27 03:54:56;;;;;;;2.20;0.80;;;14.90;99.90;;;;;;4995231;28;20014;-71
2021/08/27 03:57:23;;;;;;;3.15;0.70;;;15.00;99.90;;;;;;4996587;28;20026;-71
2021/08/27 03:59:49;;;;;;;3.58;0.75;;;15.00;99.90;;;;;;4997312;28;20038;-71
2021/08/27 04:02:15;;;;;;;3.50;0.77;;;15.00;99.90;;;;;;4994583;28;20021;-71
2021/08/27 04:04:41;;;;;;;2.25;0.40;;;15.00;99.90;;;;;;4996384;28;20157;-71
2021/08/27 04:07:06;;;;;;;5.13;0.75;;;14.90;99.90;;;;;;4994569;28;20037;-72
2021/08/27 04:09:34;;;;;;;1.85;0.70;;;14.80;99.90;;;;;;4995384;28;20034;-72
2021/08/27 04:12:03;;;;;;;2.70;0.60;;;14.70;99.90;;;;;;5005182;28;20033;-72
2021/08/27 04:14:29;;;;;;;2.08;0.50;;;14.60;99.90;;;;;;5014373;28;20108;-72
2021/08/27 04:16:54;;;;;;;3.85;0.70;;;14.50;99.90;;;;;;5002907;28;20097;-72
2021/08/27 04:19:20;;;;;;;2.13;0.75;;;14.50;99.90;;;;;;4994603;28;20529;-72
2021/08/27 04:21:46;;;;;;;2.58;0.52;;;14.40;99.90;;;;;;4993332;28;20403;-72
2021/08/27 04:24:11;;;;;;;3.72;0.60;;;14.30;99.90;;;;;;4998800;28;20026;-71
2021/08/27 04:26:37;;;;;;;3.05;1.08;;;14.30;99.90;;;;;;4995808;28;20034;-72
2021/08/27 04:29:03;;;;;;;2.05;0.80;;;14.30;99.90;;;;;;4994418;28;20038;-72
2021/08/27 04:31:30;;;;;;;2.78;1.38;;;14.30;99.90;;;;;;4994401;28;20046;-72
2021/08/27 04:33:55;;;;;;;7.50;2.00;;;14.20;99.90;;;;;;4997204;28;20490;-72
2021/08/27 04:36:21;;;;;;;2.78;0.73;;;14.20;99.90;;;;;;4998223;28;20078;-72
2021/08/27 04:38:47;;;;;;;7.38;0.93;;;14.20;99.90;;;;;;4995810;28;20045;-72
2021/08/27 04:41:12;;;;;;;4.30;1.60;;;14.20;99.90;;;;;;5009677;28;20021;-72
2021/08/27 04:43:38;;;;;;;4.10;0.90;;;14.20;99.90;;;;;;4994292;28;20030;-72
2021/08/27 04:46:04;;;;;;;2.95;0.70;;;14.30;99.90;;;;;;4994108;28;20030;-71
2021/08/27 04:48:29;;;;;;;2.47;0.70;;;14.30;99.90;;;;;;5007176;28;20026;-72
2021/08/27 04:50:55;;;;;;;1.80;0.70;;;14.30;99.90;;;;;;5013876;28;20029;-71
2021/08/27 04:53:20;;;;;;;2.25;0.70;;;14.30;99.90;;;;;;5012946;28;20113;-71
2021/08/27 04:55:46;;;;;;;9.55;1.00;;;14.30;99.90;;;;;;5013235;28;20018;-72
2021/08/27 04:58:12;;;;;;;8.55;0.98;;;14.20;99.90;;;;;;5004152;28;20068;-71
2021/08/27 05:00:37;;;;;;;5.57;0.85;;;14.30;99.90;;;;;;5008025;28;20118;-71
2021/08/27 05:03:03;;;;;;;5.22;0.85;;;14.20;99.90;;;;;;4996073;28;20041;-72
2021/08/27 05:05:29;;;;;;;5.43;0.95;;;14.20;99.90;;;;;;5004727;28;20455;-72
2021/08/27 05:07:54;;;;;;;5.80;0.75;;;14.20;99.90;;;;;;4996807;28;20045;-71
2021/08/27 05:10:20;;;;;;;6.90;1.10;;;14.20;99.90;;;;;;4996980;28;20022;-72
2021/08/27 05:12:46;;;;;;;13.52;1.38;;;14.20;99.90;;;;;;4994497;28;20047;-72
2021/08/27 05:15:12;;;;;;;4.78;0.70;;;14.20;99.90;;;;;;4998895;28;20030;-71
2021/08/27 05:17:39;;;;;;;6.32;0.73;;;14.20;99.90;;;;;;4994305;28;20081;-71
2021/08/27 05:20:06;;;;;;;7.35;0.80;;;14.20;99.90;;;;;;4993890;28;20018;-71
2021/08/27 05:22:31;;;;;;;1.03;0.47;;;14.20;99.90;;;;;;5007370;28;20457;-72
2021/08/27 05:24:57;;;;;;;7.85;0.82;;;14.20;99.90;;;;;;4997907;28;20046;-72
2021/08/27 05:27:23;;;;;;;2.53;1.13;;;14.20;99.90;;;;;;4996367;28;20026;-72
2021/08/27 05:29:49;;;;;;;4.88;0.70;;;14.10;99.90;;;;;;5003809;28;20068;-72
2021/08/27 05:32:14;;;;;;;4.75;0.75;;;14.20;99.90;;;;;;4999724;28;20027;-72
2021/08/27 05:34:41;;;;;;;5.35;1.30;;;14.20;99.90;;;;;;4997170;28;20052;-72
2021/08/27 05:37:08;;;;;;;4.28;0.75;;;14.20;99.90;;;;;;4996759;28;20073;-72
2021/08/27 05:39:34;;;;;;;4.97;0.70;;;14.20;99.90;;;;;;4999476;28;20030;-72
2021/08/27 05:42:00;;;;;;;3.03;0.95;;;14.20;99.90;;;;;;5006937;28;20365;-71
2021/08/27 05:44:27;;;;;;;9.20;1.00;;;14.20;99.90;;;;;;4997530;28;20030;-71
2021/08/27 05:46:54;;;;;;;8.38;1.35;;;14.30;99.90;;;;;;4997597;28;20069;-71
2021/08/27 05:49:20;;;;;;;1.23;0.67;;;14.30;99.90;;;;;;4997569;28;20034;-75
2021/08/27 05:51:46;;;;;;;4.35;1.50;;;14.30;99.90;;;;;;5010480;28;20398;-74
2021/08/27 05:54:11;;;;;;;6.65;1.50;;;14.30;99.90;;;;;;5000978;28;20042;-75
2021/08/27 05:56:37;;;;;;;6.70;1.02;;;14.30;99.90;;;;;;4997288;28;20026;-75
2021/08/27 05:59:03;;;;;;;3.28;1.02;;;14.30;99.90;;;;;;5013565;28;20061;-72
2021/08/27 06:01:28;;;;;;;3.80;1.00;;;14.30;99.90;;;;;;5004751;28;20030;-72
2021/08/27 06:03:54;;;;;;;5.97;1.05;;;14.30;99.90;;;;;;4997507;28;20030;-72
2021/08/27 06:06:20;;;;;;;5.55;0.75;;;14.30;99.90;;;;;;4996981;28;20034;-72
2021/08/27 06:08:45;;;;;;;1.10;0.85;;;14.30;99.90;;;;;;4996394;28;20069;-72
2021/08/27 06:11:11;;;;;;;2.65;0.70;;;14.30;99.90;;;;;;5012848;28;20030;-73
2021/08/27 06:13:36;;;;;;;7.15;0.82;;;14.30;99.90;;;;;;5016546;28;20053;-72
2021/08/27 06:16:02;;;;;;;3.75;0.93;;;14.40;99.90;;;;;;5015349;28;20061;-73
2021/08/27 06:18:28;;;;;;;4.57;0.80;;;14.40;99.90;;;;;;5015199;28;20037;-73
2021/08/27 06:20:54;;;;;;;3.83;0.82;;;14.40;99.90;;;;;;5016265;28;20529;-73
2021/08/27 06:23:20;;;;;;;4.25;1.65;;;14.50;99.90;;;;;;5000027;28;20030;-73
2021/08/27 06:25:46;;;;;;;4.80;1.30;;;14.60;99.90;;;;;;5017292;28;20029;-73
2021/08/27 06:28:12;;;;;;;0.90;0.60;;;14.70;99.90;;;;;;4999751;28;20206;-73
2021/08/27 06:30:38;;;;;;;4.15;0.75;;;14.70;99.90;;;;;;4999181;28;20034;-75
2021/08/27 06:33:04;;;;;;;1.85;0.57;;;14.90;99.90;;;;;;5001125;28;20038;-72
2021/08/27 06:35:31;;;;;;;5.68;0.93;;;15.00;99.90;;;;;;5003600;28;20028;-73
2021/08/27 06:40:43;;;;;;;2.13;1.02;;;15.20;99.90;;;;;;5006161;28;20033;-72
2021/08/27 06:43:09;;;;;;;9.93;0.93;;;15.30;99.90;;;;;;5002333;28;20033;-72
2021/08/27 06:45:37;;;;;;;2.40;0.50;;;15.40;99.90;;;;;;5001206;28;20026;-72
2021/08/27 06:48:06;;;;;;;5.72;0.90;;;15.40;99.90;;;;;;5011210;28;20052;-74
2021/08/27 06:50:32;;;;;;;2.30;0.88;;;15.60;99.90;;;;;;4996756;28;20034;-76
2021/08/27 06:52:58;;;;;;;7.40;0.73;;;15.80;99.90;;;;;;5002061;28;20080;-72
2021/08/27 06:55:23;;;;;;;2.97;0.88;;;15.80;99.90;;;;;;5015050;28;20422;-72
2021/08/27 06:57:49;;;;;;;3.33;0.85;;;15.90;99.90;;;;;;4999120;28;20023;-72
2021/08/27 07:00:18;;;;;;;4.13;1.23;;;16.00;99.90;;;;;;4996373;28;20435;-74
2021/08/27 07:02:44;;;;;;;3.25;0.50;;;16.10;99.90;;;;;;5013229;28;20228;-72
2021/08/27 07:05:10;;;;;;;2.70;0.47;;;16.10;99.90;;;;;;5005137;28;20113;-72
2021/08/27 07:07:36;;;;;;;3.63;0.43;;;16.20;99.90;;;;;;4999446;28;20479;-72
2021/08/27 07:10:03;;;;;;;5.50;0.80;;;16.30;99.90;;;;;;4994929;28;20049;-72
2021/08/27 07:12:28;;;;;;;11.70;1.15;;;16.40;99.90;;;;;;4999747;28;20446;-72
2021/08/27 07:14:54;;;;;;;2.08;0.70;;;16.40;99.90;;;;;;4998317;28;20022;-72
2021/08/27 07:17:22;;;;;;;14.15;2.22;;;16.50;99.90;;;;;;5005194;28;20027;-72
2021/08/27 07:19:55;;;;;;;5.35;0.70;;;16.50;99.90;;;;;;4995777;28;20030;-72
2021/08/27 07:22:21;;;;;;;2.35;0.98;;;16.60;99.90;;;;;;5002276;28;20027;-72
2021/08/27 07:24:47;;;;;;;6.80;1.48;;;16.60;99.90;;;;;;5001873;28;20033;-72
2021/08/27 07:27:13;;;;;;;10.13;1.02;;;16.70;99.90;;;;;;5011690;28;20038;-72
2021/08/27 07:29:39;;;;;;;4.68;1.00;;;16.70;99.90;;;;;;5006101;28;20108;-72
2021/08/27 07:32:06;;;;;;;7.38;1.33;;;16.70;99.90;;;;;;5014253;28;20057;-72
2021/08/27 07:34:32;;;;;;;;;;;16.80;99.90;;;;;;5005484;28;20095;-72
2021/08/27 07:36:58;;;;;;;2.17;0.68;;;16.80;99.90;;;;;;4996815;28;19910;-73
2021/08/27 07:39:23;;;;;;;5.90;0.90;;;17.00;99.90;;;;;;4998383;28;20029;-73
2021/08/27 07:41:49;;;;;;;4.47;0.90;;;17.00;99.90;;;;;;5006001;28;20382;-73
2021/08/27 07:44:15;;;;;;;8.85;1.65;;;17.00;99.90;;;;;;5005655;28;20096;-72
2021/08/27 07:46:40;;;;;;;2.67;1.05;;;17.20;99.90;;;;;;5001748;28;20049;-74
2021/08/27 07:49:06;;;;;;;2.97;1.10;;;17.20;99.90;;;;;;4995753;28;20029;-72
2021/08/27 07:51:31;;;;;;;4.00;1.55;;;17.20;99.90;;;;;;5011358;28;20044;-73
2021/08/27 07:53:57;;;;;;;5.35;1.17;;;17.30;99.90;;;;;;5014519;28;20475;-73
2021/08/27 07:56:23;;;;;;;3.92;0.82;;;17.30;99.90;;;;;;5029930;28;20034;-73
2021/08/27 07:58:48;;;;;;;7.07;1.60;;;17.30;99.90;;;;;;5011876;28;20034;-73
2021/08/27 08:01:14;;;;;;;3.28;1.00;;;17.30;99.90;;;;;;5012183;28;20380;-72
2021/08/27 08:03:39;;;;;;;7.93;1.13;;;17.20;99.90;;;;;;5002529;28;20030;-72
2021/08/27 08:06:05;;;;;;;4.28;1.00;;;17.30;99.90;;;;;;4994340;28;20050;-73
2021/08/27 08:08:31;;;;;;;3.05;1.13;;;17.20;99.90;;;;;;5004622;28;20029;-73
2021/08/27 08:10:56;;;;;;;1.77;0.90;;;17.10;99.90;;;;;;5000411;28;20034;-73
2021/08/27 08:13:22;;;;;;;6.00;1.17;;;17.10;99.90;;;;;;4994735;28;20038;-73
2021/08/27 08:15:48;;;;;;;2.22;0.80;;;17.20;99.90;;;;;;5002803;28;20072;-73
2021/08/27 08:18:13;;;;;;;4.10;0.82;;;17.40;99.90;;;;;;4994213;28;20029;-72
2021/08/27 08:20:39;;;;;;;4.10;1.08;;;17.50;99.90;;;;;;5001271;28;20060;-72
2021/08/27 08:23:05;;;;;;;3.45;1.08;;;17.70;99.90;;;;;;5023223;28;20061;-73
2021/08/27 08:25:31;;;;;;;2.15;0.77;;;17.90;99.90;;;;;;4999560;28;20022;-72
2021/08/27 08:27:56;;;;;;;7.28;1.60;;;17.90;99.90;;;;;;5008874;28;20041;-73
2021/08/27 08:30:22;;;;;;;6.65;1.00;;;17.80;99.90;;;;;;5000388;28;20422;-73
2021/08/27 08:32:48;;;;;;;2.95;1.63;;;17.70;99.90;;;;;;4995601;28;20395;-73
2021/08/27 08:35:13;;;;;;;3.80;0.98;;;17.50;99.90;;;;;;5006269;28;20054;-73
2021/08/27 08:37:42;;;;;;;3.38;1.30;;;17.50;99.90;;;;;;5013275;28;20147;-73
2021/08/27 08:40:09;;;;;;;3.28;1.80;;;17.40;99.90;;;;;;4994421;28;20070;-73
2021/08/27 08:42:36;;;;;;;4.97;1.88;;;17.40;99.90;;;;;;5001470;28;20022;-73
2021/08/27 08:45:03;;;;;;;6.23;1.33;;;17.30;99.90;;;;;;4999956;28;20022;-73
2021/08/27 08:47:29;;;;;;;9.63;2.47;;;17.30;99.90;;;;;;5008618;28;20023;-73
2021/08/27 08:49:56;;;;;;;6.55;2.17;;;17.20;99.90;;;;;;5013649;28;20034;-73
2021/08/27 08:52:23;;;;;;;2.50;1.13;;;17.20;99.90;;;;;;5001303;28;20036;-73
2021/08/27 08:54:50;;;;;;;3.70;0.93;;;17.20;99.90;;;;;;5024493;28;20435;-73
2021/08/27 08:57:15;;;;;;;3.83;1.07;;;17.20;99.90;;;;;;5013678;28;20492;-73
2021/08/27 08:59:42;;;;;;;8.80;1.00;;;17.00;99.90;;;;;;5014390;28;20281;-73
2021/08/27 09:02:09;;;;;;;3.47;1.00;;;16.90;99.90;;;;;;5009417;28;20038;-73
2021/08/27 09:04:34;;;;;;;5.30;1.37;;;16.70;99.90;;;;;;5013968;28;20105;-73
2021/08/27 09:07:00;;;;;;;3.97;1.25;;;16.60;99.90;;;;;;5011680;28;20372;-73
2021/08/27 09:09:35;;;;;;;8.82;1.67;;;16.50;99.90;;;;;;5001459;28;20029;-73
2021/08/27 09:12:17;;;;;;;8.43;1.50;;;16.60;99.90;;;;;;5009767;28;20073;-73
2021/08/27 09:14:53;;;;;;;8.15;1.48;;;16.70;99.90;;;;;;5013733;28;20069;-73
2021/08/27 09:17:36;;;;;;;7.15;1.00;;;16.80;99.90;;;;;;5013875;28;20118;-73
2021/08/27 09:20:08;;;;;;;4.15;1.13;;;17.00;99.90;;;;;;5012471;28;20034;-73
2021/08/27 09:22:50;;;;;;;4.13;1.20;;;17.10;99.90;;;;;;5013247;28;20022;-72
2021/08/27 09:25:18;;;;;;;7.32;2.35;;;17.30;99.90;;;;;;5013615;28;20466;-72
2021/08/27 09:28:06;;;;;;;7.97;1.23;;;17.40;99.90;;;;;;5013608;28;20065;-73
2021/08/27 09:30:38;;;;;;;20.23;3.00;;;17.60;99.90;;;;;;5012467;28;20504;-73
2021/08/27 09:33:17;;;;;;;7.15;1.95;;;17.90;99.90;;;;;;5013264;28;20080;-73
2021/08/27 09:36:03;;;;;;;8.38;1.80;;;18.20;99.90;;;;;;5012218;28;20359;-72
2021/08/27 09:38:34;;;;;;;5.63;1.40;;;18.40;99.90;;;;;;5013817;28;20034;-73
2021/08/27 09:41:06;;;;;;;9.55;1.30;;;18.50;99.90;;;;;;5012791;28;20501;-73
2021/08/27 09:43:55;;;;;;;3.10;0.98;;;18.50;99.90;;;;;;5009329;28;20062;-73
2021/08/27 09:46:30;;;;;;;5.32;1.08;;;18.70;99.90;;;;;;5005206;28;20030;-74
2021/08/27 09:48:56;;;;;;;5.63;1.27;;;18.60;99.90;;;;;;5017582;28;20026;-73
2021/08/27 09:51:51;;;;;;;6.60;1.40;;;18.60;99.90;;;;;;5017080;28;20030;-73
2021/08/27 09:54:34;;;;;;;3.60;1.20;;;18.50;99.90;;;;;;5013228;28;20038;-73
2021/08/27 09:57:02;;;;;;;3.90;1.65;;;18.80;99.90;;;;;;5015534;28;20045;-75
2021/08/27 09:59:47;;;;;;;4.15;1.52;;;18.90;99.90;;;;;;4998440;28;20039;-72
2021/08/27 10:02:15;;;;;;;5.28;1.30;;;18.90;99.90;;;;;;5008096;28;20494;-74
2021/08/27 10:04:59;;;;;;;8.85;1.42;;;19.10;99.90;;;;;;4992898;28;20487;-74
2021/08/27 10:07:37;;;;;;;2.38;0.98;;;19.00;99.90;;;;;;5006206;28;20030;-74
2021/08/27 10:10:05;;;;;;;1.35;0.93;;;18.80;99.90;;;;;;5012514;28;20057;-74
2021/08/27 10:12:32;;;;;;;;;;;19.00;99.90;;;;;;5011861;28;20489;-72
2021/08/27 10:14:59;;;;;;;2.92;1.38;;;19.00;99.90;;;;;;5012230;28;20289;-73
2021/08/27 10:17:25;;;;;;;6.33;1.40;;;19.20;99.90;;;;;;5012879;28;20041;-73
2021/08/27 10:19:51;;;;;;;4.07;1.63;;;19.40;99.90;;;;;;5009655;28;20540;-72
2021/08/27 10:22:17;;;;;;;4.15;1.08;;;19.50;99.90;;;;;;4998188;28;20023;-72
2021/08/27 10:24:44;;;;;;;11.90;1.65;;;19.60;99.90;;;;;;5001948;28;20026;-72
2021/08/27 10:27:13;;;;;;;3.38;1.05;;;19.40;99.90;;;;;;4998569;28;20390;-72
2021/08/27 10:29:54;;;;;;;2.45;1.40;;;19.10;99.90;;;;;;5016001;28;20038;-72
2021/08/27 10:32:38;;;;;;;4.90;1.13;;;18.90;99.90;;;;;;4996843;28;20418;-72
2021/08/27 10:35:24;;;;;;;4.90;1.38;;;18.80;99.90;;;;;;5024423;28;20532;-71
2021/08/27 10:37:53;;;;;;;7.10;1.17;;;18.70;99.90;;;;;;5013750;28;20140;-72
2021/08/27 10:40:22;;;;;;;1.75;1.10;;;18.50;99.90;;;;;;5016100;28;20030;-72
2021/08/27 10:42:47;;;;;;;5.53;1.60;;;18.40;99.90;;;;;;5008915;28;20032;-75
2021/08/27 10:45:15;;;;;;;5.20;1.00;;;18.30;99.90;;;;;;4995494;28;20394;-75
2021/08/27 10:48:09;;;;;;;5.70;1.52;;;18.10;99.90;;;;;;5010547;28;20115;-73
2021/08/27 10:50:36;;;;;;;6.93;1.45;;;17.90;99.90;;;;;;5012693;28;20495;-74
2021/08/27 10:53:33;;;;;;;7.85;1.60;;;17.90;99.90;;;;;;5014533;28;20033;-75
2021/08/27 10:56:01;;;;;;;2.23;1.10;;;18.00;99.90;;;;;;5003972;28;20065;-75
2021/08/27 10:58:51;;;;;;;5.90;1.30;;;18.40;99.90;;;;;;5014221;28;20022;-71
2021/08/27 11:01:34;;;;;;;7.35;2.00;;;18.80;99.90;;;;;;5016153;28;20045;-75
2021/08/27 11:04:25;;;;;;;5.07;1.65;;;19.10;99.90;;;;;;5008749;28;20030;-77
2021/08/27 11:07:04;;;;;;;3.55;1.63;;;19.30;99.90;;;;;;5007265;28;20057;-76
2021/08/27 11:09:31;;;;;;;7.22;1.15;;;19.10;99.90;;;;;;5011852;28;20037;-75
2021/08/27 11:12:09;;;;;;;11.27;1.33;;;18.60;99.90;;;;;;5014501;28;20033;-78
2021/08/27 11:14:36;;;;;;;6.30;1.80;;;18.20;99.90;;;;;;4995302;28;20034;-76
2021/08/27 11:17:05;;;;;;;4.75;0.80;;;17.60;99.90;;;;;;5007109;28;20089;-76
2021/08/27 11:19:35;;;;;;;2.83;0.63;;;17.30;99.90;;;;;;5012491;28;20169;-75
2021/08/27 11:22:10;;;;;;;6.25;2.15;;;16.70;99.90;;;;;;5011298;28;20072;-77
2021/08/27 11:25:17;;;;;;;2.53;1.52;;;16.50;99.90;;;;;;4995437;28;20026;-76
2021/08/27 11:28:07;;;;;;;5.35;1.05;;;16.30;99.90;;;;;;5000113;28;20030;-79
2021/08/27 11:30:34;;;;;;;7.07;1.10;;;16.20;99.90;;;;;;5005407;28;20046;-75
2021/08/27 11:33:01;;;;;;;3.28;1.00;;;16.00;99.90;;;;;;4995508;28;20037;-72
2021/08/27 11:35:28;;;;;;;5.15;0.93;;;15.90;99.90;;;;;;4995423;28;20022;-73
2021/08/27 11:38:05;;;;;;;2.58;1.17;;;16.00;99.90;;;;;;5000566;28;20026;-73
2021/08/27 11:40:31;;;;;;;4.10;1.02;;;16.00;99.90;;;;;;4999880;28;20026;-76
2021/08/27 11:42:58;;;;;;;1.85;0.95;;;16.20;99.90;;;;;;5003250;28;20493;-76
2021/08/27 11:45:26;;;;;;;5.68;1.05;;;16.30;99.90;;;;;;4997108;28;20072;-75
2021/08/27 11:48:00;;;;;;;7.55;1.25;;;16.30;99.90;;;;;;5006416;28;20029;-75
2021/08/27 11:50:37;;;;;;;7.47;0.82;;;16.50;99.90;;;;;;4999662;28;20045;-75
2021/08/27 11:53:04;;;;;;;7.13;0.88;;;16.60;99.90;;;;;;4996580;28;20088;-75
2021/08/27 11:55:30;;;;;;;4.18;1.33;;;16.70;99.90;;;;;;5003835;28;20054;-75
2021/08/27 11:57:56;;;;;;;4.35;1.25;;;16.80;99.90;;;;;;5004634;28;20395;-75
2021/08/27 12:00:38;;;;;;;4.95;1.15;;;16.90;99.90;;;;;;4995079;28;20064;-75
2021/08/27 12:03:04;;;;;;;3.50;1.30;;;17.00;99.90;;;;;;4995037;28;20088;-74
2021/08/27 12:05:31;;;;;;;2.22;1.17;;;17.20;99.90;;;;;;4995286;28;20037;-75
2021/08/27 12:07:59;;;;;;;4.72;0.93;;;17.40;99.90;;;;;;4994901;28;20027;-75
2021/08/27 12:10:26;;;;;;;2.72;1.33;;;17.80;99.90;;;;;;5020533;28;20397;-72
2021/08/27 12:12:54;;;;;;;3.17;0.80;;;18.20;99.90;;;;;;5007063;28;20406;-72
2021/08/27 12:15:29;;;;;;;1.67;1.17;;;18.40;99.90;;;;;;5005440;28;20391;-76
2021/08/27 12:17:56;;;;;;;3.97;1.15;;;18.60;99.90;;;;;;5003907;28;20030;-75
2021/08/27 12:20:27;;;;;;;5.72;1.08;;;18.50;99.90;;;;;;4995235;28;20038;-75
2021/08/27 12:22:59;;;;;;;7.97;1.80;;;18.60;99.90;;;;;;5002633;28;20021;-75
2021/08/27 12:25:29;;;;;;;5.07;0.90;;;18.80;99.90;;;;;;5010794;28;20395;-75
2021/08/27 12:27:56;;;;;;;8.38;1.48;;;18.90;99.90;;;;;;5012800;28;20024;-76
2021/08/27 12:30:23;;;;;;;6.80;1.92;;;19.10;99.90;;;;;;4995576;28;20110;-75
2021/08/27 12:32:49;;;;;;;9.55;1.35;;;18.80;99.90;;;;;;4999041;28;20045;-75
2021/08/27 12:35:19;;;;;;;5.30;1.08;;;18.60;99.90;;;;;;5002910;28;20121;-75
2021/08/27 12:37:48;;;;;;;7.28;1.52;;;18.40;99.90;;;;;;4994019;28;20489;-73
2021/08/27 12:40:17;;;;;;;7.22;1.17;;;18.70;99.90;;;;;;4999278;28;20034;-73
2021/08/27 12:43:02;;;;;;;6.95;2.15;;;19.00;99.90;;;;;;4995142;28;20076;-74
2021/08/27 12:45:46;;;;;;;3.40;1.40;;;19.20;99.90;;;;;;5000950;28;20022;-72
2021/08/27 12:48:18;;;;;;;6.40;1.25;;;19.40;99.90;;;;;;5000445;28;20031;-73
2021/08/27 12:51:01;;;;;;;7.40;1.45;;;19.30;99.90;;;;;;4994213;28;20533;-73
2021/08/27 12:53:34;;;;;;;6.70;1.33;;;19.20;99.90;;;;;;5004692;28;20093;-73
2021/08/27 12:56:18;;;;;;;4.47;1.33;;;19.50;99.90;;;;;;5012676;28;20076;-74
2021/08/27 12:58:49;;;;;;;3.20;1.20;;;19.90;99.90;;;;;;5012162;28;20108;-73
2021/08/27 13:01:20;;;;;;;2.65;1.20;;;20.00;99.90;;;;;;4996802;28;20018;-74
2021/08/27 13:03:49;;;;;;;4.50;0.93;;;20.00;99.90;;;;;;4995158;28;20492;-73